createdAt,value
2018-02-19T00:00:19.541Z,76.15
2018-02-19T00:01:19.680Z,76.25
2018-02-19T00:02:19.550Z,76.22
2018-02-19T00:03:19.558Z,76.41
2018-02-19T00:04:19.561Z,76.71
2018-02-19T00:05:19.401Z,76.79
2018-02-19T00:06:19.597Z,76.3
2018-02-19T00:07:19.705Z,76.44
2018-02-19T00:08:19.590Z,76.76
2018-02-19T00:09:19.583Z,76.41
2018-02-19T00:10:19.440Z,76.09
2018-02-19T00:11:19.591Z,75.76
2018-02-19T00:12:19.624Z,75.98
2018-02-19T00:13:19.606Z,75.61
2018-02-19T00:14:19.614Z,75.92
2018-02-19T00:15:19.610Z,76.15
2018-02-19T00:16:19.462Z,76.36
2018-02-19T00:17:19.477Z,76.68
2018-02-19T00:18:19.458Z,76.07
2018-02-19T00:19:19.460Z,76.53
2018-02-19T00:20:19.480Z,76.68
2018-02-19T00:21:19.473Z,76.78
2018-02-19T00:22:19.498Z,76.79
2018-02-19T00:23:19.480Z,76.68
2018-02-19T00:24:19.480Z,76.87
2018-02-19T00:25:19.653Z,76.5
2018-02-19T00:26:19.488Z,76.33
2018-02-19T00:27:19.519Z,76.8
2018-02-19T00:28:19.504Z,76.48
2018-02-19T00:29:19.508Z,76.52
2018-02-19T00:30:19.658Z,76.44
2018-02-19T00:31:19.673Z,76.22
2018-02-19T00:32:19.674Z,76.32
2018-02-19T00:33:19.677Z,76.39
2018-02-19T00:34:19.550Z,76.13
2018-02-19T00:35:19.522Z,76.2
2018-02-19T00:36:19.681Z,76.5
2018-02-19T00:37:19.688Z,76.5
2018-02-19T00:38:19.697Z,76.76
2018-02-19T00:39:19.557Z,76.71
2018-02-19T00:40:19.694Z,76.58
2018-02-19T00:41:19.701Z,76.78
2018-02-19T00:42:19.704Z,76.27
2018-02-19T00:43:19.703Z,76.53
2018-02-19T00:44:19.709Z,76.48
2018-02-19T00:45:19.728Z,76.96
2018-02-19T00:46:19.722Z,76.72
2018-02-19T00:47:19.716Z,76.79
2018-02-19T00:48:19.561Z,76.89
2018-02-19T00:49:19.730Z,76.94
2018-02-19T00:50:19.726Z,77.23
2018-02-19T00:51:19.732Z,76.6
2018-02-19T00:52:19.741Z,76.61
2018-02-19T00:53:19.734Z,76.92
2018-02-19T00:54:19.742Z,76.85
2018-02-19T00:55:19.758Z,76.78
2018-02-19T00:56:19.748Z,76.88
2018-02-19T00:57:19.755Z,76.85
2018-02-19T00:58:19.756Z,76.94
2018-02-19T00:59:19.763Z,76.86
2018-02-19T01:00:19.625Z,76.63
2018-02-19T01:01:19.773Z,76.87
2018-02-19T01:02:19.760Z,76.84
2018-02-19T01:03:19.764Z,76.29
2018-02-19T01:04:19.771Z,76.52
2018-02-19T01:05:19.799Z,76.71
2018-02-19T01:06:19.785Z,76.26
2018-02-19T01:07:19.778Z,76.5
2018-02-19T01:08:19.775Z,76.39
2018-02-19T01:09:19.624Z,76.39
2018-02-19T01:10:19.783Z,76.55
2018-02-19T01:11:19.633Z,76.69
2018-02-19T01:12:19.789Z,76.22
2018-02-19T01:13:19.828Z,76.22
2018-02-19T01:14:19.797Z,76.62
2018-02-19T01:15:19.806Z,76.74
2018-02-19T01:16:19.840Z,76.98
2018-02-19T01:17:19.663Z,76.35
2018-02-19T01:18:19.832Z,76.65
2018-02-19T01:19:19.824Z,76.44
2018-02-19T01:20:19.670Z,76.69
2018-02-19T01:21:19.689Z,76.91
2018-02-19T01:22:19.677Z,76.84
2018-02-19T01:23:19.840Z,77.05
2018-02-19T01:24:19.853Z,77.13
2018-02-19T01:25:20.157Z,77.07
2018-02-19T01:26:19.848Z,76.56
2018-02-19T01:27:19.849Z,77.06
2018-02-19T01:28:19.861Z,77
2018-02-19T01:29:19.865Z,76.87
2018-02-19T01:30:19.887Z,76.52
2018-02-19T01:31:19.856Z,76.61
2018-02-19T01:32:19.869Z,76.44
2018-02-19T01:33:19.907Z,76.34
2018-02-19T01:34:19.869Z,76.26
2018-02-19T01:35:20.021Z,76.71
2018-02-19T01:36:19.888Z,76.71
2018-02-19T01:37:19.737Z,76.65
2018-02-19T01:38:19.898Z,76.73
2018-02-19T01:39:19.743Z,76.82
2018-02-19T01:40:19.916Z,76.51
2018-02-19T01:41:19.905Z,76.44
2018-02-19T01:42:19.747Z,76.49
2018-02-19T01:43:19.919Z,76.82
2018-02-19T01:44:19.743Z,77.03
2018-02-19T01:45:19.906Z,77
2018-02-19T01:46:19.898Z,76.96
2018-02-19T01:47:19.906Z,77.19
2018-02-19T01:48:19.899Z,77.23
2018-02-19T01:49:19.903Z,77.31
2018-02-19T01:50:19.903Z,77.54
2018-02-19T01:51:19.912Z,77.3
2018-02-19T01:52:19.756Z,77.32
2018-02-19T01:53:19.764Z,77.38
2018-02-19T01:54:19.787Z,77.36
2018-02-19T01:55:19.767Z,77.23
2018-02-19T01:56:19.798Z,77.18
2018-02-19T01:57:19.764Z,77.55
2018-02-19T01:58:19.932Z,77
2018-02-19T01:59:19.925Z,77.31
2018-02-19T02:00:19.924Z,77.31
2018-02-19T02:01:19.953Z,77.63
2018-02-19T02:02:19.929Z,77.12
2018-02-19T02:03:19.932Z,76.91
2018-02-19T02:04:19.941Z,77.13
2018-02-19T02:05:19.944Z,77.04
2018-02-19T02:06:19.982Z,77.04
2018-02-19T02:07:19.791Z,77.02
2018-02-19T02:08:19.951Z,77.23
2018-02-19T02:09:19.805Z,77.09
2018-02-19T02:10:19.969Z,77.26
2018-02-19T02:11:19.839Z,76.91
2018-02-19T02:12:19.985Z,77.85
2018-02-19T02:13:19.983Z,77.05
2018-02-19T02:14:19.996Z,77.16
2018-02-19T02:15:19.983Z,77.04
2018-02-19T02:16:20.007Z,77.15
2018-02-19T02:17:19.993Z,76.72
2018-02-19T02:18:19.996Z,77.04
2018-02-19T02:19:19.995Z,77.02
2018-02-19T02:20:19.834Z,76.82
2018-02-19T02:21:20.019Z,76.75
2018-02-19T02:22:20.014Z,77.04
2018-02-19T02:23:20.009Z,77.11
2018-02-19T02:24:20.019Z,77.08
2018-02-19T02:25:20.016Z,76.85
2018-02-19T02:26:20.037Z,77.15
2018-02-19T02:27:20.011Z,77.14
2018-02-19T02:28:20.017Z,77.57
2018-02-19T02:29:20.025Z,77.43
2018-02-19T02:30:20.029Z,77.54
2018-02-19T02:31:20.207Z,77.43
2018-02-19T02:32:20.034Z,77.4
2018-02-19T02:33:19.873Z,77.5
2018-02-19T02:34:20.040Z,77.68
2018-02-19T02:35:19.881Z,77.3
2018-02-19T02:36:20.061Z,76.8
2018-02-19T02:37:19.886Z,76.95
2018-02-19T02:38:20.049Z,77.3
2018-02-19T02:39:20.072Z,77.26
2018-02-19T02:40:19.898Z,77.38
2018-02-19T02:41:20.178Z,77.18
2018-02-19T02:42:19.901Z,77.29
2018-02-19T02:43:19.904Z,76.91
2018-02-19T02:44:19.911Z,76.68
2018-02-19T02:45:19.921Z,76.92
2018-02-19T02:46:20.159Z,77.17
2018-02-19T02:47:19.937Z,77.17
2018-02-19T02:48:19.917Z,77.32
2018-02-19T02:49:19.923Z,76.58
2018-02-19T02:50:19.952Z,76.57
2018-02-19T02:51:19.937Z,77
2018-02-19T02:52:19.931Z,77.03
2018-02-19T02:53:19.942Z,76.81
2018-02-19T02:54:19.940Z,76.95
2018-02-19T02:55:19.952Z,76.86
2018-02-19T02:56:19.954Z,76.99
2018-02-19T02:57:19.955Z,76.94
2018-02-19T02:58:19.954Z,77.24
2018-02-19T02:59:19.966Z,77.25
2018-02-19T03:00:19.968Z,76.86
2018-02-19T03:01:19.972Z,77.1
2018-02-19T03:02:19.996Z,76.43
2018-02-19T03:03:19.987Z,76.49
2018-02-19T03:04:19.982Z,76.72
2018-02-19T03:05:19.991Z,77.22
2018-02-19T03:06:19.986Z,77.31
2018-02-19T03:07:19.973Z,76.91
2018-02-19T03:08:19.976Z,77.04
2018-02-19T03:09:20.141Z,77.14
2018-02-19T03:10:20.144Z,77.19
2018-02-19T03:11:20.153Z,76.98
2018-02-19T03:12:20.205Z,77.47
2018-02-19T03:13:20.166Z,77.36
2018-02-19T03:14:19.996Z,77.55
2018-02-19T03:15:20.005Z,77.63
2018-02-19T03:16:20.008Z,77.42
2018-02-19T03:17:20.030Z,77.5
2018-02-19T03:18:20.163Z,77.94
2018-02-19T03:19:20.171Z,77.82
2018-02-19T03:20:20.021Z,77.88
2018-02-19T03:21:20.184Z,78.15
2018-02-19T03:22:20.019Z,78.33
2018-02-19T03:23:20.189Z,78.18
2018-02-19T03:24:20.179Z,78.26
2018-02-19T03:25:20.177Z,77.95
2018-02-19T03:26:20.031Z,78.18
2018-02-19T03:27:20.035Z,78.4
2018-02-19T03:28:20.041Z,78.26
2018-02-19T03:29:20.203Z,78.28
2018-02-19T03:30:20.043Z,78.35
2018-02-19T03:31:20.070Z,78.33
2018-02-19T03:32:20.050Z,78.51
2018-02-19T03:33:20.052Z,78.36
2018-02-19T03:34:20.064Z,78.53
2018-02-19T03:35:20.070Z,78.59
2018-02-19T03:36:20.087Z,78.63
2018-02-19T03:37:20.059Z,78.76
2018-02-19T03:38:20.074Z,78.86
2018-02-19T03:39:20.066Z,79.16
2018-02-19T03:40:20.089Z,79.24
2018-02-19T03:41:20.101Z,79.37
2018-02-19T03:42:20.234Z,79.14
2018-02-19T03:43:20.077Z,79.35
2018-02-19T03:44:20.074Z,79.26
2018-02-19T03:45:20.090Z,79.63
2018-02-19T03:46:20.246Z,79.25
2018-02-19T03:47:20.105Z,79.43
2018-02-19T03:48:20.095Z,79.62
2018-02-19T03:49:20.080Z,79.66
2018-02-19T03:50:20.087Z,79.76
2018-02-19T03:51:20.090Z,79.88
2018-02-19T03:52:20.245Z,79.86
2018-02-19T03:53:20.087Z,79.97
2018-02-19T03:54:20.083Z,80.37
2018-02-19T03:55:20.095Z,80.19
2018-02-19T03:56:20.265Z,80.21
2018-02-19T03:57:20.131Z,80.38
2018-02-19T03:58:20.118Z,80.62
2018-02-19T03:59:20.108Z,80.64
2018-02-19T04:00:20.108Z,80.92
2018-02-19T04:01:20.115Z,80.68
2018-02-19T04:02:20.147Z,80.92
2018-02-19T04:03:20.126Z,80.9
2018-02-19T04:04:20.128Z,80.81
2018-02-19T04:05:20.140Z,81.23
2018-02-19T04:06:20.141Z,80.92
2018-02-19T04:07:20.308Z,81.07
2018-02-19T04:08:20.171Z,81.3
2018-02-19T04:09:20.156Z,81.09
2018-02-19T04:10:20.164Z,80.89
2018-02-19T04:11:20.152Z,80.97
2018-02-19T04:12:20.156Z,81.31
2018-02-19T04:13:20.188Z,80.95
2018-02-19T04:14:20.171Z,80.98
2018-02-19T04:15:20.197Z,81.05
2018-02-19T04:16:20.178Z,81.19
2018-02-19T04:17:20.164Z,81.19
2018-02-19T04:18:20.178Z,81.34
2018-02-19T04:19:20.195Z,81.52
2018-02-19T04:20:20.166Z,81.29
2018-02-19T04:21:20.329Z,81.54
2018-02-19T04:22:20.331Z,81.56
2018-02-19T04:23:20.328Z,81.42
2018-02-19T04:24:20.361Z,81.11
2018-02-19T04:25:20.338Z,81.5
2018-02-19T04:26:20.344Z,81.59
2018-02-19T04:27:20.212Z,81.68
2018-02-19T04:28:20.358Z,81.71
2018-02-19T04:29:20.199Z,81.55
2018-02-19T04:30:20.200Z,81.92
2018-02-19T04:31:20.367Z,82.06
2018-02-19T04:32:20.206Z,81.97
2018-02-19T04:33:20.210Z,82.12
2018-02-19T04:34:20.389Z,81.95
2018-02-19T04:35:20.365Z,81.45
2018-02-19T04:36:20.395Z,81.61
2018-02-19T04:37:20.408Z,81.7
2018-02-19T04:38:20.229Z,81.86
2018-02-19T04:39:20.419Z,81.71
2018-02-19T04:40:20.240Z,82.02
2018-02-19T04:41:20.401Z,82.06
2018-02-19T04:42:20.256Z,81.96
2018-02-19T04:43:20.453Z,81.82
2018-02-19T04:44:20.243Z,81.87
2018-02-19T04:45:20.415Z,81.78
2018-02-19T04:46:20.414Z,81.81
2018-02-19T04:47:20.441Z,82.08
2018-02-19T04:48:20.279Z,81.73
2018-02-19T04:49:20.426Z,81.88
2018-02-19T04:50:20.439Z,81.96
2018-02-19T04:51:20.285Z,82.11
2018-02-19T04:52:20.469Z,82.2
2018-02-19T04:53:20.279Z,82.27
2018-02-19T04:54:20.441Z,82.12
2018-02-19T04:55:20.289Z,82.35
2018-02-19T04:56:20.297Z,82.32
2018-02-19T04:57:20.325Z,82.61
2018-02-19T04:58:20.309Z,82.55
2018-02-19T04:59:20.312Z,82.4
2018-02-19T05:00:20.321Z,82.51
2018-02-19T05:01:20.311Z,82.75
2018-02-19T05:02:20.308Z,82.56
2018-02-19T05:03:20.315Z,82.53
2018-02-19T05:04:20.325Z,82.61
2018-02-19T05:05:20.321Z,82.77
2018-02-19T05:06:20.324Z,83.07
2018-02-19T05:07:20.327Z,82.67
2018-02-19T05:08:20.329Z,82.62
2018-02-19T05:09:20.335Z,82.38
2018-02-19T05:10:20.341Z,82.7
2018-02-19T05:11:20.350Z,82.6
2018-02-19T05:12:20.363Z,82.27
2018-02-19T05:13:20.374Z,82.29
2018-02-19T05:14:20.371Z,82.3
2018-02-19T05:15:20.348Z,82.57
2018-02-19T05:16:20.356Z,82.48
2018-02-19T05:17:20.366Z,82.36
2018-02-19T05:18:20.404Z,82.56
2018-02-19T05:19:20.392Z,82.53
2018-02-19T05:20:20.377Z,82.77
2018-02-19T05:21:20.373Z,82.93
2018-02-19T05:22:20.405Z,82.81
2018-02-19T05:23:20.389Z,82.58
2018-02-19T05:24:20.420Z,82.8
2018-02-19T05:25:20.402Z,82.61
2018-02-19T05:26:20.404Z,82.48
2018-02-19T05:27:20.412Z,82.69
2018-02-19T05:28:20.417Z,82.35
2018-02-19T05:29:20.412Z,82.44
2018-02-19T05:30:20.418Z,82.5
2018-02-19T05:31:20.433Z,82.34
2018-02-19T05:32:20.590Z,82.38
2018-02-19T05:33:20.708Z,82.76
2018-02-19T05:34:20.593Z,82.41
2018-02-19T05:35:20.432Z,82.34
2018-02-19T05:36:20.602Z,82.36
2018-02-19T05:37:20.600Z,82.47
2018-02-19T05:38:20.624Z,82.58
2018-02-19T05:39:20.607Z,82.52
2018-02-19T05:40:20.620Z,82.44
2018-02-19T05:41:20.448Z,82.37
2018-02-19T05:42:20.606Z,82.16
2018-02-19T05:43:20.635Z,82.5
2018-02-19T05:44:20.567Z,82.51
2018-02-19T05:45:20.605Z,82.38
2018-02-19T05:46:20.608Z,82.68
2018-02-19T05:47:20.457Z,82.35
2018-02-19T05:48:20.622Z,82.44
2018-02-19T05:49:20.487Z,82.61
2018-02-19T05:50:20.467Z,82.59
2018-02-19T05:51:20.632Z,82.5
2018-02-19T05:52:20.652Z,82.55
2018-02-19T05:53:20.645Z,82.72
2018-02-19T05:54:20.666Z,83.07
2018-02-19T05:55:20.650Z,83.19
2018-02-19T05:56:20.492Z,82.64
2018-02-19T05:57:20.491Z,82.49
2018-02-19T05:58:20.507Z,82.44
2018-02-19T05:59:20.541Z,82.27
2018-02-19T06:00:20.510Z,82.55
2018-02-19T06:01:20.506Z,82.7
2018-02-19T06:02:20.674Z,82.49
2018-02-19T06:03:20.684Z,82.31
2018-02-19T06:04:20.544Z,82.52
2018-02-19T06:05:20.521Z,82.43
2018-02-19T06:06:20.690Z,82.49
2018-02-19T06:07:20.520Z,82.41
2018-02-19T06:08:20.522Z,82.6
2018-02-19T06:09:20.801Z,82.31
2018-02-19T06:10:20.537Z,82.47
2018-02-19T06:11:20.549Z,82.04
2018-02-19T06:12:20.547Z,82.02
2018-02-19T06:13:20.555Z,82.3
2018-02-19T06:14:20.565Z,82.16
2018-02-19T06:15:20.572Z,81.83
2018-02-19T06:16:20.554Z,81.87
2018-02-19T06:17:20.558Z,81.77
2018-02-19T06:18:20.576Z,81.83
2018-02-19T06:19:20.587Z,81.71
2018-02-19T06:20:20.561Z,81.84
2018-02-19T06:21:20.559Z,82.18
2018-02-19T06:22:20.559Z,82.17
2018-02-19T06:23:20.567Z,81.93
2018-02-19T06:24:20.612Z,81.83
2018-02-19T06:25:20.744Z,81.8
2018-02-19T06:26:20.586Z,81.51
2018-02-19T06:27:20.600Z,81.55
2018-02-19T06:28:20.590Z,81.47
2018-02-19T06:29:20.625Z,81.58
2018-02-19T06:30:20.595Z,81.67
2018-02-19T06:31:20.634Z,81.46
2018-02-19T06:32:20.655Z,81.42
2018-02-19T06:33:20.604Z,81.52
2018-02-19T06:34:20.640Z,81.34
2018-02-19T06:35:20.619Z,81.28
2018-02-19T06:36:20.628Z,81.35
2018-02-19T06:37:20.622Z,81.54
2018-02-19T06:38:20.626Z,81.57
2018-02-19T06:39:20.630Z,82.03
2018-02-19T06:40:20.633Z,81.56
2018-02-19T06:41:20.644Z,81.66
2018-02-19T06:42:20.650Z,81.51
2018-02-19T06:43:20.649Z,81.45
2018-02-19T06:44:20.803Z,81.43
2018-02-19T06:45:20.813Z,81.2
2018-02-19T06:46:20.663Z,81.32
2018-02-19T06:47:20.830Z,81.61
2018-02-19T06:48:20.836Z,81.35
2018-02-19T06:49:20.679Z,81.32
2018-02-19T06:50:20.708Z,81.31
2018-02-19T06:51:20.852Z,81.21
2018-02-19T06:52:20.693Z,81.3
2018-02-19T06:53:20.882Z,80.95
2018-02-19T06:54:20.853Z,81.59
2018-02-19T06:55:20.878Z,81.27
2018-02-19T06:56:20.861Z,81.28
2018-02-19T06:57:20.709Z,81.24
2018-02-19T06:58:20.703Z,81.2
2018-02-19T06:59:20.715Z,81.19
2018-02-19T07:00:20.713Z,81.46
2018-02-19T07:01:20.755Z,81.36
2018-02-19T07:02:20.726Z,81.2
2018-02-19T07:03:20.725Z,81.28
2018-02-19T07:04:20.884Z,80.89
2018-02-19T07:05:20.729Z,81.09
2018-02-19T07:06:20.914Z,80.99
2018-02-19T07:07:20.734Z,81.1
2018-02-19T07:08:20.738Z,80.87
2018-02-19T07:09:20.908Z,81
2018-02-19T07:10:20.904Z,81.02
2018-02-19T07:11:20.751Z,81.04
2018-02-19T07:12:20.773Z,81.04
2018-02-19T07:13:20.946Z,81.26
2018-02-19T07:14:20.751Z,81.47
2018-02-19T07:15:20.929Z,81.08
2018-02-19T07:16:20.774Z,81.06
2018-02-19T07:17:20.925Z,81.08
2018-02-19T07:18:20.798Z,81.02
2018-02-19T07:19:20.783Z,81.18
2018-02-19T07:20:20.857Z,80.98
2018-02-19T07:21:20.779Z,81.05
2018-02-19T07:22:20.782Z,80.87
2018-02-19T07:23:20.961Z,81.11
2018-02-19T07:24:20.784Z,81.24
2018-02-19T07:25:20.797Z,81.12
2018-02-19T07:26:20.811Z,81.18
2018-02-19T07:27:20.966Z,81.39
2018-02-19T07:28:20.825Z,81.02
2018-02-19T07:29:20.805Z,80.66
2018-02-19T07:30:20.810Z,80.73
2018-02-19T07:31:20.815Z,80.94
2018-02-19T07:32:20.811Z,80.8
2018-02-19T07:33:20.801Z,80.8
2018-02-19T07:34:20.800Z,80.72
2018-02-19T07:35:20.799Z,80.71
2018-02-19T07:36:20.831Z,80.94
2018-02-19T07:37:20.810Z,80.85
2018-02-19T07:38:20.814Z,81.02
2018-02-19T07:39:21.115Z,80.9
2018-02-19T07:40:20.827Z,81.03
2018-02-19T07:41:20.829Z,80.84
2018-02-19T07:42:20.832Z,80.79
2018-02-19T07:43:20.845Z,80.72
2018-02-19T07:44:20.866Z,80.63
2018-02-19T07:45:20.876Z,80.65
2018-02-19T07:46:20.851Z,80.62
2018-02-19T07:47:20.870Z,80.61
2018-02-19T07:48:20.868Z,80.82
2018-02-19T07:49:20.861Z,80.87
2018-02-19T07:50:20.888Z,80.89
2018-02-19T07:51:20.895Z,81.03
2018-02-19T07:52:20.880Z,80.71
2018-02-19T07:53:20.892Z,80.68
2018-02-19T07:54:20.884Z,80.61
2018-02-19T07:55:21.064Z,80.53
2018-02-19T07:56:21.052Z,80.5
2018-02-19T07:57:21.041Z,80.54
2018-02-19T07:58:20.902Z,80.39
2018-02-19T07:59:21.051Z,80.24
2018-02-19T08:00:20.937Z,80.21
2018-02-19T08:01:20.904Z,80.13
2018-02-19T08:02:20.894Z,80.09
2018-02-19T08:03:20.902Z,80.19
2018-02-19T08:04:20.910Z,80.23
2018-02-19T08:05:20.935Z,80.09
2018-02-19T08:06:20.906Z,80.32
2018-02-19T08:07:20.912Z,80.07
2018-02-19T08:08:20.908Z,80.15
2018-02-19T08:09:20.921Z,80.2
2018-02-19T08:10:20.934Z,80.27
2018-02-19T08:11:21.074Z,80.27
2018-02-19T08:12:21.077Z,80.31
2018-02-19T08:13:20.922Z,80.04
2018-02-19T08:14:20.976Z,80
2018-02-19T08:15:20.932Z,79.98
2018-02-19T08:16:20.922Z,80.06
2018-02-19T08:17:20.931Z,80.04
2018-02-19T08:18:20.939Z,80.21
2018-02-19T08:19:20.937Z,79.96
2018-02-19T08:20:20.943Z,80.02
2018-02-19T08:21:20.971Z,79.88
2018-02-19T08:22:20.956Z,79.7
2018-02-19T08:23:20.959Z,79.98
2018-02-19T08:24:20.953Z,79.89
2018-02-19T08:25:20.948Z,80.05
2018-02-19T08:26:20.989Z,80.12
2018-02-19T08:27:20.963Z,79.69
2018-02-19T08:28:21.123Z,79.79
2018-02-19T08:29:20.965Z,79.85
2018-02-19T08:30:20.982Z,79.98
2018-02-19T08:31:20.969Z,79.72
2018-02-19T08:32:20.987Z,79.47
2018-02-19T08:33:21.003Z,79.81
2018-02-19T08:34:20.982Z,79.69
2018-02-19T08:35:20.991Z,79.58
2018-02-19T08:36:21.021Z,79.85
2018-02-19T08:37:20.993Z,79.7
2018-02-19T08:38:20.995Z,79.55
2018-02-19T08:39:21.010Z,79.31
2018-02-19T08:40:21.004Z,79.14
2018-02-19T08:41:21.032Z,79.33
2018-02-19T08:42:21.011Z,79.23
2018-02-19T08:43:21.010Z,79.09
2018-02-19T08:44:21.016Z,79.02
2018-02-19T08:45:21.030Z,79.04
2018-02-19T08:46:21.057Z,79.01
2018-02-19T08:47:21.027Z,78.89
2018-02-19T08:48:21.051Z,78.64
2018-02-19T08:49:21.031Z,78.83
2018-02-19T08:50:21.044Z,78.97
2018-02-19T08:51:21.073Z,78.91
2018-02-19T08:52:21.047Z,78.92
2018-02-19T08:53:21.052Z,78.86
2018-02-19T08:54:21.066Z,78.83
2018-02-19T08:55:21.049Z,78.96
2018-02-19T08:56:21.079Z,78.97
2018-02-19T08:57:21.052Z,78.91
2018-02-19T08:58:21.066Z,78.84
2018-02-19T08:59:21.072Z,78.76
2018-02-19T09:00:21.250Z,78.45
2018-02-19T09:01:21.102Z,78.56
2018-02-19T09:02:21.378Z,78.58
2018-02-19T09:03:21.080Z,78.59
2018-02-19T09:04:21.092Z,78.57
2018-02-19T09:05:21.088Z,78.21
2018-02-19T09:06:21.089Z,78.21
2018-02-19T09:07:21.284Z,78.54
2018-02-19T09:08:21.254Z,78.29
2018-02-19T09:09:21.110Z,78.36
2018-02-19T09:10:21.267Z,78.48
2018-02-19T09:11:21.272Z,78.43
2018-02-19T09:12:21.133Z,78.92
2018-02-19T09:13:21.274Z,78.82
2018-02-19T09:14:21.115Z,78.72
2018-02-19T09:15:21.175Z,78.44
2018-02-19T09:16:21.281Z,78.31
2018-02-19T09:17:21.149Z,78.29
2018-02-19T09:18:21.131Z,78.32
2018-02-19T09:19:21.288Z,78.65
2018-02-19T09:20:21.304Z,78.04
2018-02-19T09:21:21.141Z,78.42
2018-02-19T09:22:21.163Z,78.11
2018-02-19T09:23:21.142Z,78.24
2018-02-19T09:24:21.152Z,78.21
2018-02-19T09:25:21.300Z,78.44
2018-02-19T09:26:21.317Z,78.57
2018-02-19T09:27:21.344Z,77.89
2018-02-19T09:28:21.191Z,77.96
2018-02-19T09:29:21.164Z,77.87
2018-02-19T09:30:21.162Z,77.9
2018-02-19T09:31:21.167Z,77.76
2018-02-19T09:32:21.319Z,78.04
2018-02-19T09:33:21.198Z,77.69
2018-02-19T09:34:21.341Z,77.77
2018-02-19T09:35:21.335Z,77.65
2018-02-19T09:36:21.342Z,77.3
2018-02-19T09:37:21.175Z,77.32
2018-02-19T09:38:21.365Z,77.32
2018-02-19T09:39:21.191Z,77.4
2018-02-19T09:40:21.185Z,77.5
2018-02-19T09:41:21.227Z,77.69
2018-02-19T09:42:21.228Z,77.47
2018-02-19T09:43:21.205Z,77.26
2018-02-19T09:44:21.211Z,77.07
2018-02-19T09:45:21.219Z,77.02
2018-02-19T09:46:21.254Z,77.05
2018-02-19T09:47:21.226Z,76.67
2018-02-19T09:48:21.390Z,76.91
2018-02-19T09:49:21.228Z,77.41
2018-02-19T09:50:21.230Z,76.96
2018-02-19T09:51:21.272Z,76.95
2018-02-19T09:52:21.239Z,76.83
2018-02-19T09:53:21.236Z,76.89
2018-02-19T09:54:21.244Z,77.45
2018-02-19T09:55:21.243Z,76.58
2018-02-19T09:56:21.251Z,76.57
2018-02-19T09:57:21.248Z,76.48
2018-02-19T09:58:21.279Z,76.31
2018-02-19T09:59:21.258Z,76.67
2018-02-19T10:00:21.270Z,76.16
2018-02-19T10:01:21.393Z,76.11
2018-02-19T10:02:21.281Z,75.76
2018-02-19T10:03:21.433Z,75.88
2018-02-19T10:04:21.281Z,75.81
2018-02-19T10:05:21.285Z,76.08
2018-02-19T10:06:21.388Z,75.76
2018-02-19T10:07:21.294Z,75.91
2018-02-19T10:08:21.283Z,76.06
2018-02-19T10:09:21.291Z,75.77
2018-02-19T10:10:21.327Z,75.96
2018-02-19T10:11:21.417Z,75.7
2018-02-19T10:12:21.289Z,75.41
2018-02-19T10:13:21.292Z,75.46
2018-02-19T10:14:21.298Z,75.93
2018-02-19T10:15:21.465Z,75.71
2018-02-19T10:16:21.338Z,75.96
2018-02-19T10:17:21.341Z,75.85
2018-02-19T10:18:21.324Z,75.4
2018-02-19T10:19:21.473Z,75.49
2018-02-19T10:20:21.474Z,75.57
2018-02-19T10:21:21.491Z,75.26
2018-02-19T10:22:21.510Z,75.42
2018-02-19T10:23:21.490Z,75.25
2018-02-19T10:24:21.521Z,74.95
2018-02-19T10:25:21.499Z,75.34
2018-02-19T10:26:21.500Z,74.74
2018-02-19T10:27:21.372Z,75.2
2018-02-19T10:28:21.503Z,75.07
2018-02-19T10:29:21.509Z,74.87
2018-02-19T10:30:21.542Z,74.24
2018-02-19T10:31:21.528Z,74.47
2018-02-19T10:32:21.549Z,74.85
2018-02-19T10:33:21.528Z,75.01
2018-02-19T10:34:21.540Z,73.67
2018-02-19T10:35:21.540Z,74.45
2018-02-19T10:36:21.538Z,74.14
2018-02-19T10:37:21.573Z,73.71
2018-02-19T10:38:21.547Z,74.14
2018-02-19T10:39:21.389Z,73.72
2018-02-19T10:40:21.546Z,73.99
2018-02-19T10:41:21.553Z,73.57
2018-02-19T10:42:21.552Z,73.81
2018-02-19T10:43:21.549Z,73.77
2018-02-19T10:44:21.557Z,73.7
2018-02-19T10:45:21.404Z,73.42
2018-02-19T10:46:21.596Z,73.64
2018-02-19T10:47:21.419Z,73.99
2018-02-19T10:48:21.412Z,73.23
2018-02-19T10:49:21.587Z,73.64
2018-02-19T10:50:21.588Z,73.62
2018-02-19T10:51:21.598Z,73.6
2018-02-19T10:52:21.421Z,73.24
2018-02-19T10:53:21.583Z,73.06
2018-02-19T10:54:21.424Z,73.81
2018-02-19T10:55:21.425Z,73.57
2018-02-19T10:56:21.451Z,73.39
2018-02-19T10:57:21.429Z,73.81
2018-02-19T10:58:21.439Z,73.58
2018-02-19T10:59:21.453Z,73.81
2018-02-19T11:00:21.440Z,73.51
2018-02-19T11:01:21.572Z,73.09
2018-02-19T11:02:21.445Z,73.33
2018-02-19T11:03:21.446Z,72.48
2018-02-19T11:04:21.449Z,72.78
2018-02-19T11:05:21.459Z,73.55
2018-02-19T11:06:21.485Z,71.89
2018-02-19T11:07:21.456Z,72.17
2018-02-19T11:08:21.466Z,72.82
2018-02-19T11:09:21.471Z,72.06
2018-02-19T11:10:22.581Z,72.2
2018-02-19T11:11:21.502Z,71.99
2018-02-19T11:12:21.476Z,72.29
2018-02-19T11:13:21.504Z,72.08
2018-02-19T11:14:21.483Z,71.62
2018-02-19T11:15:21.482Z,71.81
2018-02-19T11:16:21.530Z,71.4
2018-02-19T11:17:21.502Z,71.27
2018-02-19T11:18:21.497Z,71.01
2018-02-19T11:19:21.500Z,71.88
2018-02-19T11:20:21.506Z,71.42
2018-02-19T11:21:21.583Z,71.56
2018-02-19T11:22:21.544Z,71.56
2018-02-19T11:23:21.536Z,71.41
2018-02-19T11:24:21.507Z,71.71
2018-02-19T11:25:21.506Z,71.53
2018-02-19T11:26:21.513Z,71.33
2018-02-19T11:27:21.785Z,70.69
2018-02-19T11:28:21.779Z,70.69
2018-02-19T11:29:21.524Z,70.88
2018-02-19T11:30:21.695Z,71.47
2018-02-19T11:31:21.800Z,71.39
2018-02-19T11:32:21.816Z,71.62
2018-02-19T11:33:21.714Z,71.14
2018-02-19T11:34:21.735Z,71.43
2018-02-19T11:35:21.725Z,71.16
2018-02-19T11:36:21.699Z,71.56
2018-02-19T11:37:21.836Z,71.63
2018-02-19T11:38:21.712Z,71.55
2018-02-19T11:39:25.776Z,71.31
2018-02-19T11:40:21.561Z,70.94
2018-02-19T11:41:21.777Z,70.33
2018-02-19T11:42:21.563Z,70.37
2018-02-19T11:43:21.573Z,71.01
2018-02-19T11:44:21.786Z,70.67
2018-02-19T11:45:21.791Z,70.76
2018-02-19T11:46:21.692Z,70.44
2018-02-19T11:47:21.706Z,70.45
2018-02-19T11:48:21.820Z,70.13
2018-02-19T11:49:21.818Z,70.29
2018-02-19T11:50:21.754Z,70.15
2018-02-19T11:51:21.766Z,70.45
2018-02-19T11:52:21.750Z,70.91
2018-02-19T11:53:21.780Z,70.8
2018-02-19T11:54:21.758Z,70.1
2018-02-19T11:55:21.761Z,70.03
2018-02-19T11:56:21.758Z,70.31
2018-02-19T11:57:21.764Z,69.72
2018-02-19T11:58:22.083Z,69.95
2018-02-19T11:59:21.768Z,69.89
2018-02-19T12:00:21.780Z,69.92
2018-02-19T12:01:21.615Z,69.61
2018-02-19T12:02:21.771Z,70.28
2018-02-19T12:03:21.798Z,69.88
2018-02-19T12:04:21.620Z,69.83
2018-02-19T12:05:21.621Z,70.14
2018-02-19T12:06:21.624Z,70.36
2018-02-19T12:07:21.643Z,69.37
2018-02-19T12:08:21.652Z,69.22
2018-02-19T12:09:21.667Z,69.38
2018-02-19T12:10:21.655Z,69.66
2018-02-19T12:11:21.661Z,70.21
2018-02-19T12:12:21.690Z,69.77
2018-02-19T12:13:21.664Z,69.67
2018-02-19T12:14:21.673Z,69.29
2018-02-19T12:15:21.655Z,69.03
2018-02-19T12:16:21.659Z,69.64
2018-02-19T12:17:21.672Z,69.72
2018-02-19T12:18:21.915Z,69.69
2018-02-19T12:19:21.668Z,69.54
2018-02-19T12:20:21.684Z,69.03
2018-02-19T12:21:21.678Z,69.23
2018-02-19T12:22:21.683Z,69.51
2018-02-19T12:23:21.702Z,69.43
2018-02-19T12:24:21.686Z,69.08
2018-02-19T12:25:21.681Z,69.1
2018-02-19T12:26:21.783Z,69.53
2018-02-19T12:27:21.686Z,69.79
2018-02-19T12:28:21.711Z,69.96
2018-02-19T12:29:21.690Z,69.29
2018-02-19T12:30:21.684Z,69.43
2018-02-19T12:31:21.693Z,69.1
2018-02-19T12:32:21.691Z,69.3
2018-02-19T12:33:21.719Z,68.44
2018-02-19T12:34:21.715Z,68.74
2018-02-19T12:35:21.865Z,69.39
2018-02-19T12:36:21.859Z,68.7
2018-02-19T12:37:21.694Z,69.14
2018-02-19T12:38:21.722Z,69.71
2018-02-19T12:39:21.727Z,69.2
2018-02-19T12:40:21.710Z,69.62
2018-02-19T12:41:21.873Z,69.1
2018-02-19T12:42:21.885Z,69.77
2018-02-19T12:43:21.889Z,69.4
2018-02-19T12:44:21.898Z,69.07
2018-02-19T12:47:27.976Z,68.85
2018-02-19T12:48:21.888Z,69.31
2018-02-19T12:49:21.992Z,69.08
2018-02-19T12:50:21.751Z,69.53
2018-02-19T12:51:21.895Z,69.22
2018-02-19T12:52:21.918Z,69.71
2018-02-19T12:53:21.738Z,69.51
2018-02-19T12:54:21.929Z,68.88
2018-02-19T12:55:21.737Z,68.64
2018-02-19T12:56:21.749Z,68.93
2018-02-19T12:57:21.917Z,68.22